createdAt,value
2023-05-17T05:01:22.884Z,7.15
2023-05-17T05:03:51.684Z,5.53
2023-05-17T05:06:18.827Z,6.38
2023-05-17T05:12:14.795Z,6.30
2023-05-17T05:14:42.407Z,6.43
2023-05-17T05:17:10.208Z,6.63
2023-05-17T05:19:38.704Z,7.18
2023-05-17T05:22:06.946Z,7.30
2023-05-17T05:24:35.514Z,6.20
2023-05-17T05:27:04.411Z,5.72
2023-05-17T05:29:32.991Z,6.25
2023-05-17T05:32:00.397Z,6.47
2023-05-17T05:34:28.507Z,6.50
2023-05-17T05:36:56.036Z,6.90
2023-05-17T05:39:23.101Z,6.90
2023-05-17T05:41:52.153Z,7.03
2023-05-17T05:44:19.425Z,6.50
2023-05-17T05:46:48.427Z,7.35
2023-05-17T05:49:15.293Z,7.57
2023-05-17T05:51:43.274Z,6.60
2023-05-17T05:54:10.637Z,7.43
2023-05-17T05:56:38.150Z,6.95
2023-05-17T05:59:06.281Z,6.53
2023-05-17T06:01:34.377Z,6.75
2023-05-17T06:04:00.994Z,6.47
2023-05-17T06:06:28.392Z,6.45
2023-05-17T06:08:57.067Z,5.18
2023-05-17T06:11:26.386Z,4.90
2023-05-17T06:13:53.068Z,4.90
2023-05-17T06:16:20.407Z,4.80
2023-05-17T06:18:50.207Z,5.65
2023-05-17T06:21:18.772Z,4.50
2023-05-17T06:23:45.487Z,4.55
2023-05-17T06:26:12.751Z,4.95
2023-05-17T06:28:39.639Z,3.95
2023-05-17T06:31:06.910Z,6.40
2023-05-17T06:33:33.639Z,4.85
2023-05-17T06:38:32.610Z,3.75
2023-05-17T06:40:59.851Z,3.95
2023-05-17T06:43:26.562Z,3.97
2023-05-17T06:45:53.476Z,3.58
2023-05-17T06:48:20.889Z,3.10
2023-05-17T06:50:47.816Z,4.43
2023-05-17T06:53:15.284Z,3.50
2023-05-17T06:55:43.060Z,3.50
2023-05-17T06:58:10.449Z,2.90
2023-05-17T07:00:37.312Z,3.40
2023-05-17T07:03:04.430Z,3.72
2023-05-17T07:05:31.526Z,3.60
2023-05-17T07:07:59.540Z,3.53
2023-05-17T07:10:26.301Z,3.30
2023-05-17T07:12:53.645Z,3.50
2023-05-17T07:15:21.449Z,4.00
2023-05-17T07:17:48.749Z,2.88
2023-05-17T07:20:15.486Z,4.10
2023-05-17T07:22:42.857Z,2.15
2023-05-17T07:25:10.400Z,3.17
2023-05-17T07:27:37.693Z,4.00
2023-05-17T07:30:05.300Z,2.50
2023-05-17T07:32:32.421Z,3.15
2023-05-17T07:34:59.258Z,3.00
2023-05-17T07:37:26.462Z,3.08
2023-05-17T07:39:53.063Z,1.95
2023-05-17T07:42:20.319Z,2.60
2023-05-17T07:44:48.744Z,3.85
2023-05-17T07:47:16.635Z,3.03
2023-05-17T07:49:43.479Z,2.45
2023-05-17T07:52:10.846Z,2.75
2023-05-17T07:54:37.479Z,2.58
2023-05-17T07:57:04.871Z,2.38
2023-05-17T07:59:31.670Z,3.25
2023-05-17T08:01:59.012Z,2.45
2023-05-17T08:04:25.952Z,2.50
2023-05-17T08:06:55.640Z,2.10
2023-05-17T08:09:22.332Z,2.58
2023-05-17T08:11:49.344Z,2.30
2023-05-17T08:14:16.975Z,1.95
2023-05-17T08:16:46.333Z,1.70
2023-05-17T08:19:14.837Z,2.60
2023-05-17T08:21:43.084Z,2.10
2023-05-17T08:24:10.356Z,1.67
2023-05-17T08:26:37.953Z,1.73
2023-05-17T08:29:04.857Z,2.20
2023-05-17T08:31:33.191Z,2.28
2023-05-17T08:34:00.095Z,2.05
2023-05-17T08:36:30.432Z,2.90
2023-05-17T08:38:57.136Z,1.80
2023-05-17T08:41:24.097Z,2.65
2023-05-17T08:43:51.751Z,1.95
2023-05-17T08:46:21.988Z,1.80
2023-05-17T08:48:53.245Z,2.30
2023-05-17T08:51:22.139Z,1.95
2023-05-17T08:53:50.339Z,2.65
2023-05-17T08:56:21.102Z,1.92
2023-05-17T09:01:19.597Z,2.60
2023-05-17T09:03:50.693Z,2.58
2023-05-17T09:06:21.797Z,1.90
2023-05-17T09:08:52.652Z,1.75
2023-05-17T09:11:33.814Z,1.92
2023-05-17T09:14:02.084Z,1.88
2023-05-17T09:16:30.613Z,1.95
2023-05-17T09:18:58.637Z,1.95
2023-05-17T09:21:27.656Z,1.67
2023-05-17T09:24:05.413Z,2.25
2023-05-17T09:26:41.986Z,2.13
2023-05-17T09:29:13.763Z,1.73
2023-05-17T09:31:41.895Z,1.92
2023-05-17T09:34:09.469Z,2.20
2023-05-17T09:36:38.678Z,2.20
2023-05-17T09:39:10.442Z,1.40
2023-05-17T09:41:48.433Z,1.80
2023-05-17T09:44:15.891Z,1.80
2023-05-17T09:46:46.347Z,1.50
2023-05-17T09:49:13.892Z,1.80
2023-05-17T09:51:43.383Z,2.13
2023-05-17T09:54:10.979Z,1.85
2023-05-17T09:56:38.423Z,2.05
2023-05-17T09:59:13.062Z,1.55
2023-05-17T10:01:41.928Z,1.73
2023-05-17T10:04:10.598Z,2.70
2023-05-17T10:06:49.815Z,1.77
2023-05-17T10:09:21.606Z,2.08
2023-05-17T10:11:50.930Z,2.05
2023-05-17T10:14:24.691Z,2.58
2023-05-17T10:16:52.623Z,1.63
2023-05-17T10:19:21.104Z,1.95
2023-05-17T10:21:51.274Z,2.00
2023-05-17T10:26:47.001Z,1.98
2023-05-17T10:29:15.673Z,2.28
2023-05-17T10:31:44.084Z,1.90
2023-05-17T10:34:11.992Z,1.55
2023-05-17T10:36:40.880Z,2.10
2023-05-17T10:39:11.008Z,1.42
2023-05-17T10:41:43.370Z,1.95
2023-05-17T10:44:14.986Z,2.05
2023-05-17T10:47:00.310Z,2.20
2023-05-17T10:49:31.318Z,2.17
2023-05-17T10:51:59.456Z,2.40
2023-05-17T10:54:35.807Z,2.25
2023-05-17T10:57:08.384Z,1.70
2023-05-17T10:59:36.362Z,2.30
2023-05-17T11:02:04.760Z,2.13
2023-05-17T11:04:31.684Z,2.93
2023-05-17T11:07:22.369Z,2.15
2023-05-17T11:10:06.641Z,2.75
2023-05-17T11:12:38.444Z,2.17
2023-05-17T11:15:11.456Z,2.45
2023-05-17T11:17:44.266Z,2.58
2023-05-17T11:20:27.246Z,2.13
2023-05-17T11:23:16.623Z,2.30
2023-05-17T11:25:45.296Z,2.28
2023-05-17T11:28:20.854Z,2.13
2023-05-17T11:30:52.328Z,2.10
2023-05-17T11:33:33.073Z,2.42
2023-05-17T11:36:14.624Z,2.17
2023-05-17T11:38:41.391Z,2.08
2023-05-17T11:43:50.606Z,2.50
2023-05-17T11:46:25.091Z,2.65
2023-05-17T11:48:53.475Z,2.30
2023-05-17T11:51:23.889Z,2.30
2023-05-17T11:53:55.454Z,2.05
2023-05-17T11:56:35.914Z,2.25
2023-05-17T11:59:10.307Z,2.25
2023-05-17T12:01:47.070Z,2.10
2023-05-17T12:04:13.898Z,2.42
2023-05-17T12:06:41.828Z,2.85
2023-05-17T12:09:11.223Z,2.28
2023-05-17T12:11:39.949Z,2.20
2023-05-17T12:14:07.261Z,2.42
2023-05-17T12:16:37.100Z,2.05
2023-05-17T12:21:31.023Z,1.92
2023-05-17T12:23:57.684Z,2.45
2023-05-17T12:26:24.700Z,1.80
2023-05-17T12:28:59.732Z,2.00
2023-05-17T12:31:34.523Z,2.35
2023-05-17T12:34:05.621Z,2.10
2023-05-17T12:36:34.289Z,2.10
2023-05-17T12:39:01.668Z,1.70
2023-05-17T12:41:30.371Z,2.88
2023-05-17T12:44:13.652Z,2.47
2023-05-17T12:46:42.796Z,2.00
2023-05-17T12:49:11.847Z,2.25
2023-05-17T12:51:46.462Z,2.53
2023-05-17T12:54:31.545Z,2.80
2023-05-17T12:56:58.886Z,2.10
2023-05-17T12:59:26.075Z,2.72
2023-05-17T13:01:56.077Z,1.92
2023-05-17T13:04:33.620Z,2.13
2023-05-17T13:07:02.946Z,2.65
2023-05-17T13:09:31.226Z,2.30
2023-05-17T13:12:01.257Z,2.03
2023-05-17T13:17:06.264Z,2.55
2023-05-17T13:19:33.708Z,2.80
2023-05-17T13:22:01.173Z,2.42
2023-05-17T13:24:28.188Z,2.30
2023-05-17T13:26:55.452Z,2.13
2023-05-17T13:29:31.898Z,2.40
2023-05-17T13:32:07.042Z,2.92
2023-05-17T13:34:33.707Z,2.05
2023-05-17T13:37:01.264Z,1.92
2023-05-17T13:39:27.832Z,2.38
2023-05-17T13:41:55.121Z,2.67
2023-05-17T13:44:21.934Z,2.33
2023-05-17T13:46:49.165Z,2.40
2023-05-17T13:49:17.256Z,2.38
2023-05-17T13:51:45.264Z,2.47
2023-05-17T13:54:12.579Z,2.00
2023-05-17T13:56:39.927Z,2.13
2023-05-17T13:59:06.860Z,2.20
2023-05-17T14:01:34.151Z,2.15
2023-05-17T14:04:01.065Z,2.80
2023-05-17T14:06:28.826Z,2.28
2023-05-17T14:08:57.616Z,2.83
2023-05-17T14:11:24.916Z,3.10
2023-05-17T14:13:51.749Z,1.65
2023-05-17T14:16:18.621Z,2.22
2023-05-17T14:18:46.317Z,2.35
2023-05-17T14:21:13.788Z,1.90
2023-05-17T14:23:40.451Z,1.90
2023-05-17T14:26:07.820Z,2.42
2023-05-17T14:28:38.179Z,2.17
2023-05-17T14:31:10.244Z,2.67
2023-05-17T14:33:36.977Z,2.40
2023-05-17T14:36:04.617Z,3.05
2023-05-17T14:38:31.453Z,2.72
2023-05-17T14:41:00.900Z,2.38
2023-05-17T14:43:28.040Z,2.35
2023-05-17T14:45:55.354Z,2.38
2023-05-17T14:48:22.332Z,2.47
2023-05-17T14:50:49.875Z,2.20
2023-05-17T14:53:16.569Z,2.03
2023-05-17T14:55:43.969Z,2.83
2023-05-17T14:58:13.468Z,2.50
2023-05-17T15:00:42.090Z,2.67
2023-05-17T15:03:09.196Z,2.58
2023-05-17T15:05:38.147Z,2.20
2023-05-17T15:08:04.997Z,1.88
2023-05-17T15:10:32.372Z,1.88
2023-05-17T15:12:59.004Z,2.47
2023-05-17T15:15:25.935Z,2.33
2023-05-17T15:17:53.274Z,2.03
2023-05-17T15:20:20.609Z,2.65
2023-05-17T15:22:48.139Z,2.40
2023-05-17T15:25:15.495Z,2.17
2023-05-17T15:27:42.789Z,2.30
2023-05-17T15:30:12.573Z,2.33
2023-05-17T15:32:43.678Z,2.38
2023-05-17T15:35:10.444Z,2.70
2023-05-17T15:37:37.659Z,2.13
2023-05-17T15:40:09.365Z,2.10
2023-05-17T15:42:36.392Z,2.45
2023-05-17T15:45:03.806Z,2.17
2023-05-17T15:47:42.505Z,2.28
2023-05-17T15:50:11.292Z,2.78
2023-05-17T15:52:38.383Z,2.72
2023-05-17T15:55:06.825Z,2.80
2023-05-17T15:57:34.479Z,2.55
2023-05-17T16:00:01.362Z,2.22
2023-05-17T16:02:28.685Z,2.17
2023-05-17T16:04:55.557Z,1.90
2023-05-17T16:07:23.257Z,2.40
2023-05-17T16:09:49.822Z,2.70
2023-05-17T16:12:17.980Z,4.00
2023-05-17T16:14:45.430Z,3.00
2023-05-17T16:17:13.479Z,1.90
2023-05-17T16:19:40.375Z,1.98
2023-05-17T16:22:07.958Z,2.20
2023-05-17T16:24:35.196Z,1.90
2023-05-17T16:27:04.717Z,2.30
2023-05-17T16:29:35.500Z,2.47
2023-05-17T16:32:02.519Z,2.72
2023-05-17T16:34:29.274Z,2.58
2023-05-17T16:36:56.620Z,2.03
2023-05-17T16:39:23.299Z,2.67
2023-05-17T16:41:51.288Z,2.92
2023-05-17T16:44:17.934Z,2.17
2023-05-17T16:46:45.352Z,2.45
2023-05-17T16:49:12.147Z,2.05
2023-05-17T16:51:39.401Z,2.08
2023-05-17T16:54:06.063Z,3.30
2023-05-17T16:56:34.011Z,1.90
2023-05-17T16:59:00.561Z,2.20
2023-05-17T17:01:27.923Z,2.33
2023-05-17T17:03:56.658Z,2.05
2023-05-17T17:06:24.066Z,2.33
2023-05-17T17:08:50.631Z,1.88
2023-05-17T17:11:22.193Z,1.98
2023-05-17T17:13:49.484Z,1.92
2023-05-17T17:16:17.679Z,1.80
2023-05-17T17:21:25.692Z,1.75
2023-05-17T17:23:52.330Z,2.13
2023-05-17T17:26:19.700Z,2.10
2023-05-17T17:28:46.306Z,2.20
2023-05-17T17:31:13.560Z,2.50
2023-05-17T17:33:40.303Z,1.90
2023-05-17T17:36:09.388Z,1.80
2023-05-17T17:38:36.079Z,2.53
2023-05-17T17:41:03.533Z,1.88
2023-05-17T17:43:30.147Z,2.08
2023-05-17T17:45:57.308Z,2.50
2023-05-17T17:48:25.452Z,2.47
2023-05-17T17:53:34.527Z,2.45
2023-05-17T17:56:01.786Z,2.15
2023-05-17T17:58:28.513Z,2.20
2023-05-17T18:00:55.711Z,2.10
2023-05-17T18:03:24.286Z,2.80
2023-05-17T18:05:51.746Z,2.60
2023-05-17T18:08:19.202Z,1.75
2023-05-17T18:10:46.819Z,1.90
2023-05-17T18:13:15.235Z,2.30
2023-05-17T18:15:42.468Z,1.88
2023-05-17T18:18:09.123Z,2.60
2023-05-17T18:20:36.613Z,2.00
2023-05-17T18:23:03.381Z,2.45
2023-05-17T18:25:30.713Z,2.35
2023-05-17T18:27:57.312Z,2.88
2023-05-17T18:30:25.147Z,2.33
2023-05-17T18:32:51.838Z,2.83
2023-05-17T18:35:19.099Z,2.95
2023-05-17T18:37:45.720Z,3.95
2023-05-17T18:40:14.539Z,3.55
2023-05-17T18:42:41.180Z,5.40
2023-05-17T18:45:08.624Z,5.25
2023-05-17T18:47:35.405Z,2.92
2023-05-17T18:50:02.579Z,3.97
2023-05-17T18:52:29.165Z,3.58
2023-05-17T18:54:56.191Z,2.83
2023-05-17T18:57:22.802Z,2.67
2023-05-17T18:59:49.748Z,2.95
2023-05-17T19:02:16.374Z,2.38
2023-05-17T19:04:44.571Z,3.22
2023-05-17T19:07:11.198Z,2.40
2023-05-17T19:09:39.049Z,2.50
2023-05-17T19:12:06.314Z,2.38
2023-05-17T19:14:33.587Z,2.15
2023-05-17T19:17:00.441Z,1.98
2023-05-17T19:19:27.769Z,2.78
2023-05-17T19:21:54.457Z,3.25
2023-05-17T19:24:21.680Z,3.03
2023-05-17T19:26:48.285Z,2.80
2023-05-17T19:29:15.557Z,2.35
2023-05-17T19:31:42.231Z,1.92
2023-05-17T19:34:09.708Z,2.92
2023-05-17T19:36:36.294Z,1.98
2023-05-17T19:39:03.667Z,3.15
2023-05-17T19:41:30.459Z,2.30
2023-05-17T19:43:57.712Z,3.08
2023-05-17T19:46:24.471Z,2.67
2023-05-17T19:48:52.860Z,2.15
2023-05-17T19:51:19.574Z,2.72
2023-05-17T19:53:53.498Z,2.63
2023-05-17T19:56:23.885Z,2.45
2023-05-17T20:01:18.251Z,2.40
2023-05-17T20:03:45.973Z,2.97
2023-05-17T20:06:14.880Z,2.70
2023-05-17T20:08:42.742Z,3.42
2023-05-17T20:11:09.568Z,3.95
2023-05-17T20:13:40.687Z,3.55
2023-05-17T20:16:14.691Z,3.50
2023-05-17T20:18:43.242Z,3.25
2023-05-17T20:21:12.426Z,2.75
2023-05-17T20:23:40.004Z,2.70
2023-05-17T20:26:06.724Z,3.03
2023-05-17T20:28:34.016Z,2.58
